Lulu Pass Weather Station

This weather station provides temperature, relative humidity (RH), wind speed, gust or max wind speed, and wind direction at 10014ft near Lulu Pass at the head of Fisher Creek. This data can be used with temperature and precipitation data from the Fisher Creek SNOTEL site.

This weather station was purchased by the Friends of the Avalanche Center.

If the data has not been updated recently you can view it directly on datagarrison.com

Elevation
10014ft
Jump to table bottom
Date Time Temperature
deg F
RH, % Wind Speed Wind Gust Wind Direction
02/16/19 03:07 5.9 93 14 27 SW - 219
02/16/19 02:07 6.2 93 18 29 SW - 206
02/16/19 01:07 6.5 93 18 32 SW - 209
02/16/19 00:07 6.7 94 14 33 SW - 225
02/15/19 23:07 7.1 94 17 33 SW - 211
02/15/19 22:07 8.4 94 20 34 SW - 206
02/15/19 21:07 10.8 95 16 31 S - 197
02/15/19 20:07 12.3 95 15 30 SW - 220
02/15/19 19:07 14.0 96 17 31 S - 202
02/15/19 18:07 13.5 95 14 30 SW - 209
02/15/19 17:07 14.0 95 12 29 SW - 236
02/15/19 16:07 14.1 94 15 37 SW - 236
02/15/19 15:07 15.0 94 20 44 SW - 234
02/15/19 14:07 14.0 95 16 37 SW - 243
02/15/19 13:07 14.5 95 17 38 W - 250
02/15/19 12:07 13.8 95 19 37 SW - 243
02/15/19 11:07 13.2 95 18 42 SW - 239
02/15/19 10:07 13.0 95 19 38 SW - 243
02/15/19 09:07 13.0 95 18 42 SW - 239
02/15/19 08:07 13.2 96 21 49 SW - 229
02/15/19 07:07 15.3 97 18 38 SW - 227
02/15/19 06:07 16.5 97 19 39 SW - 227
02/15/19 05:07 17.8 98 16 32 SW - 233
02/15/19 04:07 20.7 99 13 28 SW - 229
02/15/19 03:07 22.4 99 11 24 SW - 222
02/15/19 02:07 22.9 99 11 19 SW - 211
02/15/19 01:07 22.8 99 6 14 SE - 154
02/15/19 00:07 20.2 98 6 9 SE - 146
02/14/19 23:07 20.2 98 6 9 SE - 146
02/14/19 22:07 19.9 98 6 11 SE - 142
02/14/19 21:07 20.3 98 7 21 SE - 157
02/14/19 20:07 19.6 98 17 40 S - 183
02/14/19 19:07 22.2 99 14 28 S - 187
02/14/19 18:07 21.7 99 17 36 S - 191
02/14/19 17:07 22.4 98 13 27 S - 195
02/14/19 16:07 22.4 98 12 24 S - 201
02/14/19 15:07 22.4 97 14 27 SW - 209
02/14/19 14:07 21.8 97 7 17 SW - 222
02/14/19 13:07 21.1 97 10 20 SW - 215
02/14/19 12:07 20.7 96 7 17 SW - 236
02/14/19 11:07 18.4 96 7 17 W - 263
02/14/19 10:07 16.9 96 8 18 SW - 246
02/14/19 09:07 15.3 96 7 14 NW - 314
02/14/19 08:07 13.5 95 10 20 NW - 320
02/14/19 07:07 12.8 95 10 23 W - 281
02/14/19 06:07 13.3 96 11 24 W - 275
02/14/19 05:07 13.5 96 14 33 W - 261
02/14/19 04:07 13.8 96 14 34 W - 277
02/14/19 03:07 14.1 96 17 41 W - 277
02/14/19 02:07 14.1 96 16 34 W - 278